createdAt,value
2023-05-08T00:01:02.669Z,91.39
2023-05-08T00:03:29.718Z,91.27
2023-05-08T00:05:56.809Z,91.27
2023-05-08T00:08:23.776Z,91.29
2023-05-08T00:10:50.664Z,91.19
2023-05-08T00:13:17.712Z,91.59
2023-05-08T00:15:44.590Z,91.44
2023-05-08T00:18:11.865Z,91.18
2023-05-08T00:20:38.798Z,91.30
2023-05-08T00:23:05.635Z,91.18
2023-05-08T00:25:32.499Z,91.09
2023-05-08T00:28:00.137Z,91.10
2023-05-08T00:30:27.296Z,91.10
2023-05-08T00:32:54.417Z,91.18
2023-05-08T00:35:21.916Z,91.13
2023-05-08T00:37:48.773Z,91.08
2023-05-08T00:40:16.204Z,91.14
2023-05-08T00:42:43.303Z,91.16
2023-05-08T00:45:10.547Z,91.14
2023-05-08T00:47:38.243Z,91.36
2023-05-08T00:50:05.591Z,91.16
2023-05-08T00:52:33.437Z,91.29
2023-05-08T00:55:02.319Z,91.21
2023-05-08T00:57:32.473Z,91.23
2023-05-08T01:00:01.768Z,91.30
2023-05-08T01:02:31.648Z,91.29
2023-05-08T01:04:59.133Z,91.31
2023-05-08T01:07:26.163Z,91.25
2023-05-08T01:09:53.244Z,91.25
2023-05-08T01:12:43.519Z,91.19
2023-05-08T01:15:24.012Z,91.27
2023-05-08T01:17:57.994Z,91.07
2023-05-08T01:20:27.826Z,91.14
2023-05-08T01:23:06.922Z,91.27
2023-05-08T01:25:55.096Z,91.36
2023-05-08T01:29:06.455Z,91.21
2023-05-08T01:31:44.950Z,91.21
2023-05-08T01:34:20.105Z,91.14
2023-05-08T01:37:00.804Z,91.40
2023-05-08T01:39:30.520Z,91.21
2023-05-08T01:41:58.917Z,91.30
2023-05-08T01:44:32.289Z,91.18
2023-05-08T01:47:03.824Z,91.31
2023-05-08T01:49:38.776Z,91.04
2023-05-08T01:52:35.514Z,91.27
2023-05-08T01:55:06.057Z,91.15
2023-05-08T01:57:36.068Z,91.03
2023-05-08T02:00:04.862Z,90.99
2023-05-08T02:02:38.302Z,91.08
2023-05-08T02:05:07.544Z,91.05
2023-05-08T02:07:38.200Z,91.03
2023-05-08T02:10:06.521Z,90.98
2023-05-08T02:12:34.351Z,91.08
2023-05-08T02:15:03.276Z,90.89
2023-05-08T02:17:31.456Z,91.16
2023-05-08T02:20:03.490Z,90.95
2023-05-08T02:22:32.861Z,90.96
2023-05-08T02:25:00.313Z,91.02
2023-05-08T02:27:29.431Z,91.21
2023-05-08T02:29:57.417Z,91.05
2023-05-08T02:32:27.092Z,90.91
2023-05-08T02:35:03.060Z,91.02
2023-05-08T02:37:32.598Z,91.00
2023-05-08T02:39:59.806Z,90.94
2023-05-08T02:42:26.962Z,91.22
2023-05-08T02:44:53.970Z,91.09
2023-05-08T02:48:00.254Z,91.02
2023-05-08T02:50:37.648Z,91.12
2023-05-08T02:53:09.639Z,91.28
2023-05-08T02:56:02.601Z,91.08
2023-05-08T02:58:43.842Z,90.89
2023-05-08T03:01:27.601Z,91.01
2023-05-08T03:04:07.840Z,91.03
2023-05-08T03:06:42.974Z,91.05
2023-05-08T03:09:20.773Z,91.22
2023-05-08T03:11:50.197Z,91.24
2023-05-08T03:14:22.750Z,91.22
2023-05-08T03:16:52.381Z,91.19
2023-05-08T03:19:39.374Z,91.27
2023-05-08T03:22:08.018Z,91.21
2023-05-08T03:24:40.093Z,91.22
2023-05-08T03:27:08.658Z,91.17
2023-05-08T03:29:38.480Z,91.26
2023-05-08T03:32:07.056Z,91.43
2023-05-08T03:34:36.209Z,91.59
2023-05-08T03:37:03.670Z,91.56
2023-05-08T03:39:30.587Z,91.47
2023-05-08T03:41:58.095Z,91.53
2023-05-08T03:44:26.133Z,91.57
2023-05-08T03:46:56.046Z,91.48
2023-05-08T03:49:25.608Z,91.31
2023-05-08T03:51:55.641Z,91.46
2023-05-08T03:54:25.504Z,91.50
2023-05-08T03:56:54.489Z,91.20
2023-05-08T03:59:33.243Z,91.28
2023-05-08T04:02:17.514Z,91.32
2023-05-08T04:04:50.161Z,91.24
2023-05-08T04:07:29.564Z,91.42
2023-05-08T04:10:28.978Z,91.44
2023-05-08T04:13:05.133Z,91.41
2023-05-08T04:15:39.388Z,91.24
2023-05-08T04:18:10.137Z,91.21
2023-05-08T04:20:41.650Z,91.28
2023-05-08T04:23:09.955Z,91.34
2023-05-08T04:25:39.009Z,91.09
2023-05-08T04:28:06.626Z,91.29
2023-05-08T04:30:35.556Z,91.27
2023-05-08T04:33:05.080Z,91.13
2023-05-08T04:35:33.980Z,91.11
2023-05-08T04:38:02.054Z,91.03
2023-05-08T04:40:28.973Z,91.06
2023-05-08T04:42:56.797Z,91.06
2023-05-08T04:45:24.192Z,91.11
2023-05-08T04:47:51.264Z,91.11
2023-05-08T04:50:18.138Z,91.46
2023-05-08T04:52:45.072Z,91.46
2023-05-08T04:55:12.128Z,91.56
2023-05-08T04:57:39.585Z,91.64
2023-05-08T05:00:07.173Z,91.47
2023-05-08T05:02:38.321Z,91.37
2023-05-08T05:05:06.459Z,91.31
2023-05-08T05:07:34.004Z,91.31
2023-05-08T05:10:01.271Z,91.50
2023-05-08T05:12:28.778Z,91.24
2023-05-08T05:14:55.885Z,91.25
2023-05-08T05:17:23.774Z,91.42
2023-05-08T05:19:53.334Z,91.54
2023-05-08T05:22:20.545Z,91.51
2023-05-08T05:24:47.523Z,91.18
2023-05-08T05:27:14.454Z,91.31
2023-05-08T05:29:41.489Z,91.43
2023-05-08T05:32:10.233Z,91.43
2023-05-08T05:34:37.704Z,91.37
2023-05-08T05:37:04.983Z,91.49
2023-05-08T05:39:32.444Z,91.29
2023-05-08T05:41:59.442Z,91.38
2023-05-08T05:44:26.325Z,91.22
2023-05-08T05:46:54.703Z,91.14
2023-05-08T05:49:21.682Z,91.32
2023-05-08T05:51:48.588Z,91.35
2023-05-08T05:54:16.664Z,91.27
2023-05-08T05:56:44.425Z,91.18
2023-05-08T05:59:11.579Z,91.32
2023-05-08T06:01:39.410Z,91.48
2023-05-08T06:04:06.693Z,91.27
2023-05-08T06:06:33.670Z,91.31
2023-05-08T06:09:00.748Z,91.49
2023-05-08T06:11:27.634Z,91.32
2023-05-08T06:13:54.806Z,91.42
2023-05-08T06:16:23.207Z,91.29
2023-05-08T06:18:50.629Z,91.66
2023-05-08T06:21:17.493Z,91.34
2023-05-08T06:23:44.539Z,91.50
2023-05-08T06:26:11.409Z,91.60
2023-05-08T06:28:38.502Z,91.54
2023-05-08T06:31:05.391Z,91.59
2023-05-08T06:33:32.327Z,91.50
2023-05-08T06:35:59.472Z,91.64
2023-05-08T06:38:26.667Z,91.69
2023-05-08T06:40:54.098Z,91.78
2023-05-08T06:43:21.737Z,91.69
2023-05-08T06:45:48.643Z,91.78
2023-05-08T06:48:15.509Z,91.79
2023-05-08T06:50:43.323Z,91.69
2023-05-08T06:53:10.303Z,91.65
2023-05-08T06:55:37.105Z,91.81
2023-05-08T06:58:04.205Z,91.79
2023-05-08T07:00:31.175Z,91.90
2023-05-08T07:02:58.084Z,92.01
2023-05-08T07:05:24.993Z,91.95
2023-05-08T07:07:54.188Z,91.86
2023-05-08T07:10:22.977Z,92.61
2023-05-08T07:12:50.111Z,92.94
2023-05-08T07:15:25.349Z,93.07
2023-05-08T07:17:53.514Z,92.95
2023-05-08T07:20:21.595Z,92.79
2023-05-08T07:22:48.923Z,92.58
2023-05-08T07:25:16.305Z,92.35
2023-05-08T07:27:43.587Z,92.51
2023-05-08T07:30:10.812Z,92.51
2023-05-08T07:32:39.401Z,92.65
2023-05-08T07:35:11.023Z,92.72
2023-05-08T07:37:40.817Z,92.62
2023-05-08T07:40:07.993Z,92.64
2023-05-08T07:42:45.195Z,92.66
2023-05-08T07:45:13.686Z,92.73
2023-05-08T07:47:52.529Z,92.68
2023-05-08T07:50:19.598Z,92.85
2023-05-08T07:52:49.210Z,92.73
2023-05-08T07:55:18.145Z,92.62
2023-05-08T07:57:45.126Z,92.48
2023-05-08T08:00:14.248Z,92.41
2023-05-08T08:02:42.307Z,92.40
2023-05-08T08:05:09.655Z,92.56
2023-05-08T08:07:36.504Z,92.31
2023-05-08T08:10:04.679Z,92.21
2023-05-08T08:12:32.091Z,92.24
2023-05-08T08:14:59.113Z,92.44
2023-05-08T08:17:28.437Z,92.31
2023-05-08T08:19:56.603Z,92.32
2023-05-08T08:22:24.871Z,92.34
2023-05-08T08:24:54.905Z,92.23
2023-05-08T08:27:22.736Z,92.43
2023-05-08T08:29:52.611Z,92.35
2023-05-08T08:32:25.687Z,92.50
2023-05-08T08:34:52.567Z,92.54
2023-05-08T08:37:19.505Z,92.50
2023-05-08T08:39:46.346Z,92.32
2023-05-08T08:42:14.044Z,92.53
2023-05-08T08:44:41.766Z,92.33
2023-05-08T08:47:12.006Z,92.47
2023-05-08T08:49:47.355Z,92.55
2023-05-08T08:52:52.058Z,92.68
2023-05-08T08:55:20.759Z,93.07
2023-05-08T08:58:01.576Z,93.02
2023-05-08T09:00:34.155Z,92.81
2023-05-08T09:03:01.504Z,93.19
2023-05-08T09:05:28.607Z,93.29
2023-05-08T09:07:56.120Z,93.11
2023-05-08T09:10:24.545Z,93.72
2023-05-08T09:12:52.070Z,93.46
2023-05-08T09:15:18.975Z,93.58
2023-05-08T09:17:45.986Z,93.78
2023-05-08T09:20:14.863Z,93.95
2023-05-08T09:22:43.567Z,94.03
2023-05-08T09:25:11.031Z,94.09
2023-05-08T09:27:38.490Z,93.91
2023-05-08T09:30:06.581Z,94.17
2023-05-08T09:32:35.719Z,94.20
2023-05-08T09:35:03.564Z,94.34
2023-05-08T09:37:30.764Z,94.23
2023-05-08T09:40:13.512Z,94.15
2023-05-08T09:42:40.792Z,94.17
2023-05-08T09:45:08.195Z,94.04
2023-05-08T09:47:37.463Z,94.20
2023-05-08T09:50:09.868Z,94.31
2023-05-08T09:52:38.358Z,94.40
2023-05-08T09:55:10.499Z,94.31
2023-05-08T09:57:39.695Z,94.16
2023-05-08T10:00:13.926Z,94.59
2023-05-08T10:02:42.810Z,94.34
2023-05-08T10:05:34.845Z,94.33
2023-05-08T10:08:22.666Z,94.47
2023-05-08T10:10:50.165Z,94.34
2023-05-08T10:13:17.020Z,94.42
2023-05-08T10:15:45.580Z,94.40
2023-05-08T10:18:13.422Z,94.22
2023-05-08T10:20:42.490Z,94.36
2023-05-08T10:23:14.809Z,94.44
2023-05-08T10:25:46.670Z,94.23
2023-05-08T10:28:32.804Z,94.18
2023-05-08T10:31:01.537Z,94.62
2023-05-08T10:33:31.814Z,94.46
2023-05-08T10:35:59.940Z,94.43
2023-05-08T10:38:27.603Z,94.49
2023-05-08T10:40:58.162Z,94.51
2023-05-08T10:43:26.408Z,94.63
2023-05-08T10:45:55.577Z,94.57
2023-05-08T10:48:37.288Z,94.19
2023-05-08T10:51:13.859Z,94.23
2023-05-08T10:53:44.477Z,94.36
2023-05-08T10:56:11.540Z,94.34
2023-05-08T10:58:41.660Z,94.55
2023-05-08T11:01:08.719Z,94.69
2023-05-08T11:03:47.163Z,94.33
2023-05-08T11:06:15.147Z,94.29
2023-05-08T11:08:54.681Z,94.23
2023-05-08T11:11:28.481Z,94.16
2023-05-08T11:14:10.448Z,94.21
2023-05-08T11:16:57.107Z,94.20
2023-05-08T11:19:25.223Z,94.29
2023-05-08T11:22:11.168Z,94.37
2023-05-08T11:24:39.525Z,94.25
2023-05-08T11:27:06.406Z,94.30
2023-05-08T11:29:34.296Z,94.31
2023-05-08T11:32:01.417Z,94.30
2023-05-08T11:34:43.781Z,94.22
2023-05-08T11:37:16.778Z,94.30
2023-05-08T11:39:43.711Z,94.33
2023-05-08T11:42:25.411Z,94.20
2023-05-08T11:45:03.666Z,94.23
2023-05-08T11:47:42.005Z,94.26
2023-05-08T11:50:10.724Z,94.36
2023-05-08T11:52:39.818Z,94.33
2023-05-08T11:55:09.013Z,94.39
2023-05-08T11:57:35.864Z,94.45
2023-05-08T12:00:06.530Z,94.41
2023-05-08T12:02:42.568Z,94.33
2023-05-08T12:05:11.010Z,94.25
2023-05-08T12:07:48.158Z,94.19
2023-05-08T12:10:16.690Z,94.24
2023-05-08T12:12:45.274Z,94.24
2023-05-08T12:15:15.237Z,94.09
2023-05-08T12:17:42.958Z,93.98
2023-05-08T12:20:18.025Z,94.00
2023-05-08T12:22:53.204Z,94.14
2023-05-08T12:25:20.769Z,94.25
2023-05-08T12:27:48.102Z,94.01
2023-05-08T12:30:16.247Z,94.23
2023-05-08T12:32:44.070Z,94.36
2023-05-08T12:35:12.520Z,94.23
2023-05-08T12:37:40.006Z,94.35
2023-05-08T12:40:08.088Z,94.36
2023-05-08T12:42:49.858Z,94.22
2023-05-08T12:45:46.828Z,94.24
2023-05-08T12:48:18.534Z,94.14
2023-05-08T12:50:46.428Z,94.31
2023-05-08T12:53:18.110Z,94.38
2023-05-08T12:55:53.148Z,94.32
2023-05-08T12:58:24.046Z,94.49
2023-05-08T13:00:52.392Z,94.61
2023-05-08T13:03:27.224Z,94.58
2023-05-08T13:05:56.112Z,94.51
2023-05-08T13:08:37.114Z,94.53
2023-05-08T13:11:07.848Z,94.54
2023-05-08T13:13:36.607Z,94.15
2023-05-08T13:16:05.774Z,94.20
2023-05-08T13:18:33.500Z,94.34
2023-05-08T13:21:02.254Z,94.29
2023-05-08T13:23:29.311Z,94.24
2023-05-08T13:25:56.662Z,94.28
2023-05-08T13:28:23.605Z,94.21
2023-05-08T13:30:50.440Z,94.20
2023-05-08T13:33:17.349Z,94.23
2023-05-08T13:35:44.149Z,94.35
2023-05-08T13:38:11.253Z,94.36
2023-05-08T13:40:38.051Z,94.27
2023-05-08T13:43:04.973Z,94.12
2023-05-08T13:45:33.036Z,94.14
2023-05-08T13:48:00.095Z,94.23
2023-05-08T13:50:26.958Z,94.30
2023-05-08T13:52:55.196Z,94.14
2023-05-08T13:55:23.307Z,93.87
2023-05-08T13:57:51.074Z,93.75
2023-05-08T14:00:18.611Z,93.52
2023-05-08T14:02:46.058Z,93.39
2023-05-08T14:05:13.673Z,93.42
2023-05-08T14:07:41.039Z,93.54
2023-05-08T14:10:08.284Z,93.47
2023-05-08T14:12:36.412Z,93.30
2023-05-08T14:15:05.113Z,93.36
2023-05-08T14:17:32.504Z,93.17
2023-05-08T14:19:59.802Z,92.95
2023-05-08T14:22:26.671Z,92.79
2023-05-08T14:24:53.543Z,92.75
2023-05-08T14:27:20.723Z,92.77
2023-05-08T14:29:47.770Z,92.87
2023-05-08T14:32:14.640Z,92.75
2023-05-08T14:34:41.562Z,92.43
2023-05-08T14:37:08.560Z,92.44
2023-05-08T14:39:35.504Z,92.34
2023-05-08T14:42:18.322Z,92.76
2023-05-08T14:44:49.648Z,92.52
2023-05-08T14:47:16.635Z,92.69
2023-05-08T14:49:43.544Z,92.63
2023-05-08T14:52:10.455Z,92.58
2023-05-08T14:54:37.582Z,92.66
2023-05-08T14:57:04.950Z,92.74
2023-05-08T14:59:31.789Z,92.82
2023-05-08T15:01:58.850Z,92.98
2023-05-08T15:04:25.800Z,92.93
2023-05-08T15:06:52.629Z,92.91
2023-05-08T15:09:19.591Z,93.01
2023-05-08T15:11:46.434Z,92.94
2023-05-08T15:14:13.281Z,92.79
2023-05-08T15:16:40.144Z,92.93
2023-05-08T15:19:09.370Z,92.85
2023-05-08T15:21:36.456Z,92.92
2023-05-08T15:24:03.428Z,92.89
2023-05-08T15:26:30.178Z,92.87
2023-05-08T15:28:57.193Z,92.98
2023-05-08T15:31:24.126Z,92.87
2023-05-08T15:33:52.643Z,92.88
2023-05-08T15:36:19.560Z,93.02
2023-05-08T15:38:49.129Z,92.80
2023-05-08T15:41:16.006Z,92.94
2023-05-08T15:43:45.324Z,92.88
2023-05-08T15:46:12.304Z,93.18
2023-05-08T15:48:39.517Z,93.23
2023-05-08T15:51:06.610Z,93.21
2023-05-08T15:53:34.361Z,93.17
2023-05-08T15:56:01.332Z,93.26
2023-05-08T15:58:28.446Z,93.59
2023-05-08T16:00:56.178Z,93.62
2023-05-08T16:03:23.609Z,93.72
2023-05-08T16:05:50.712Z,93.80
2023-05-08T16:08:17.512Z,93.85
2023-05-08T16:10:44.368Z,93.70
2023-05-08T16:13:11.490Z,93.86
2023-05-08T16:15:38.531Z,93.64
2023-05-08T16:18:06.277Z,93.71
2023-05-08T16:20:35.603Z,93.71
2023-05-08T16:23:02.984Z,93.85
2023-05-08T16:25:29.781Z,94.01
2023-05-08T16:27:56.867Z,94.24
2023-05-08T16:30:23.708Z,96.71
2023-05-08T16:32:50.826Z,96.37
2023-05-08T16:35:18.201Z,95.93
2023-05-08T16:37:45.502Z,95.67
2023-05-08T16:40:12.609Z,95.65
2023-05-08T16:42:39.516Z,95.68
2023-05-08T16:45:07.485Z,95.60
2023-05-08T16:47:34.746Z,95.65
2023-05-08T16:50:01.906Z,95.36
2023-05-08T16:52:29.014Z,95.31
2023-05-08T16:54:55.766Z,95.36
2023-05-08T16:57:22.735Z,95.27
2023-05-08T16:59:49.722Z,95.36
2023-05-08T17:02:19.551Z,95.64
2023-05-08T17:04:47.934Z,95.62
2023-05-08T17:07:15.878Z,95.59
2023-05-08T17:09:43.067Z,95.53
2023-05-08T17:12:10.300Z,95.78
2023-05-08T17:14:39.469Z,95.68
2023-05-08T17:17:06.963Z,95.64
2023-05-08T17:19:34.375Z,95.68
2023-05-08T17:22:01.395Z,95.39
2023-05-08T17:24:30.552Z,95.21
2023-05-08T17:26:57.505Z,95.20
2023-05-08T17:29:24.662Z,95.14
2023-05-08T17:31:51.677Z,95.23
2023-05-08T17:34:18.759Z,95.14
2023-05-08T17:36:45.653Z,95.07
2023-05-08T17:39:12.831Z,95.16
2023-05-08T17:41:39.754Z,95.12
2023-05-08T17:44:07.227Z,95.10
2023-05-08T17:46:34.261Z,95.01
2023-05-08T17:49:01.480Z,94.83
2023-05-08T17:51:28.249Z,95.01
2023-05-08T17:53:56.666Z,94.69
2023-05-08T17:56:23.936Z,94.96
2023-05-08T17:58:52.464Z,95.00
2023-05-08T18:01:20.319Z,95.13
2023-05-08T18:03:48.489Z,95.10
2023-05-08T18:06:18.769Z,94.91
2023-05-08T18:08:46.642Z,94.92
2023-05-08T18:11:21.574Z,94.90
2023-05-08T18:13:49.293Z,94.85
2023-05-08T18:16:18.323Z,95.08
2023-05-08T18:18:45.608Z,95.36
2023-05-08T18:21:12.536Z,95.34
2023-05-08T18:23:39.416Z,95.38
2023-05-08T18:26:06.535Z,95.55
2023-05-08T18:28:36.031Z,95.69
2023-05-08T18:31:03.269Z,95.75
2023-05-08T18:33:30.405Z,95.86
2023-05-08T18:35:57.332Z,95.84
2023-05-08T18:38:24.275Z,95.71
2023-05-08T18:40:51.237Z,95.66
2023-05-08T18:43:18.145Z,95.60
2023-05-08T18:45:45.013Z,95.59
2023-05-08T18:48:12.048Z,95.61
2023-05-08T18:50:38.925Z,95.67
2023-05-08T18:53:06.529Z,95.50
2023-05-08T18:55:33.448Z,95.72
2023-05-08T18:58:00.470Z,95.66
2023-05-08T19:00:27.457Z,95.57
2023-05-08T19:02:54.562Z,95.52
2023-05-08T19:05:21.514Z,95.55
2023-05-08T19:07:48.414Z,95.72
2023-05-08T19:10:15.845Z,95.74
2023-05-08T19:12:43.772Z,95.43
2023-05-08T19:15:13.932Z,95.22
2023-05-08T19:17:43.000Z,95.46
2023-05-08T19:20:10.444Z,95.36
2023-05-08T19:22:37.397Z,95.26
2023-05-08T19:25:04.607Z,95.23
2023-05-08T19:27:32.208Z,95.78
2023-05-08T19:29:59.232Z,95.54
2023-05-08T19:32:26.310Z,95.64
2023-05-08T19:34:53.642Z,95.77
2023-05-08T19:37:20.649Z,96.04
2023-05-08T19:39:47.462Z,95.94
2023-05-08T19:42:14.448Z,96.15
2023-05-08T19:44:41.400Z,96.18
2023-05-08T19:47:08.499Z,95.99
2023-05-08T19:49:35.307Z,96.09
2023-05-08T19:52:02.303Z,95.91
2023-05-08T19:54:30.401Z,95.86
2023-05-08T19:56:57.955Z,95.88
2023-05-08T19:59:24.744Z,95.90
2023-05-08T20:01:51.765Z,96.02
2023-05-08T20:04:18.529Z,95.95
2023-05-08T20:06:45.558Z,95.98
2023-05-08T20:09:12.524Z,95.92
2023-05-08T20:11:39.555Z,95.95
2023-05-08T20:14:06.369Z,96.03
2023-05-08T20:16:33.424Z,96.08
2023-05-08T20:19:02.119Z,96.15
2023-05-08T20:21:33.956Z,96.09
2023-05-08T20:24:01.203Z,96.04
2023-05-08T20:26:29.453Z,95.96
2023-05-08T20:28:57.369Z,95.83
2023-05-08T20:31:27.609Z,95.78
2023-05-08T20:33:55.366Z,95.93
2023-05-08T20:36:22.422Z,96.12
2023-05-08T20:38:49.231Z,96.19
2023-05-08T20:41:16.135Z,96.27
2023-05-08T20:43:43.737Z,96.18
2023-05-08T20:46:10.562Z,96.46
2023-05-08T20:48:38.641Z,96.29
2023-05-08T20:51:05.614Z,96.19
2023-05-08T20:53:32.866Z,96.19
2023-05-08T20:56:03.967Z,95.89
2023-05-08T20:58:31.384Z,95.78
2023-05-08T21:00:58.262Z,95.68
2023-05-08T21:03:25.371Z,95.81
2023-05-08T21:05:52.234Z,95.96
2023-05-08T21:08:23.665Z,96.07
2023-05-08T21:10:51.882Z,95.90
2023-05-08T21:13:19.231Z,95.82
2023-05-08T21:15:50.377Z,95.65
2023-05-08T21:18:18.127Z,95.43
2023-05-08T21:20:49.851Z,94.85
2023-05-08T21:23:18.001Z,94.47
2023-05-08T21:25:48.800Z,94.58
2023-05-08T21:28:16.703Z,94.75
2023-05-08T21:30:44.472Z,95.04
2023-05-08T21:33:14.120Z,95.03
2023-05-08T21:35:42.158Z,95.00
2023-05-08T21:38:11.842Z,95.17
2023-05-08T21:40:39.143Z,95.19
2023-05-08T21:43:06.063Z,95.21
2023-05-08T21:45:33.611Z,95.13
2023-05-08T21:48:00.788Z,95.20
2023-05-08T21:50:30.384Z,94.97
2023-05-08T21:52:57.241Z,95.06
2023-05-08T21:55:25.019Z,95.01
2023-05-08T21:57:52.074Z,95.02
2023-05-08T22:00:20.148Z,95.13
2023-05-08T22:02:47.389Z,95.06
2023-05-08T22:05:14.789Z,94.98
2023-05-08T22:07:41.961Z,94.95
2023-05-08T22:10:10.571Z,95.15
2023-05-08T22:12:37.671Z,95.14
2023-05-08T22:15:09.523Z,95.11
2023-05-08T22:17:45.357Z,94.99
2023-05-08T22:20:14.649Z,94.96
2023-05-08T22:22:41.865Z,94.99
2023-05-08T22:25:09.308Z,94.95
2023-05-08T22:27:36.461Z,94.84
2023-05-08T22:30:03.502Z,94.74
2023-05-08T22:32:30.675Z,94.60
2023-05-08T22:34:57.430Z,94.46
2023-05-08T22:37:26.190Z,94.49
2023-05-08T22:39:53.123Z,94.61
2023-05-08T22:42:20.036Z,94.97
2023-05-08T22:44:46.914Z,94.91
2023-05-08T22:47:14.330Z,94.90
2023-05-08T22:49:42.012Z,94.75
2023-05-08T22:52:09.390Z,94.83
2023-05-08T22:54:36.478Z,94.91
2023-05-08T22:57:03.380Z,95.10
2023-05-08T22:59:30.329Z,95.29
2023-05-08T23:01:57.277Z,95.37
2023-05-08T23:04:24.086Z,95.21
2023-05-08T23:06:51.414Z,95.51
2023-05-08T23:09:18.485Z,95.56
2023-05-08T23:11:45.763Z,95.43
2023-05-08T23:14:12.552Z,95.40
2023-05-08T23:16:39.626Z,95.37
2023-05-08T23:19:07.432Z,95.47
2023-05-08T23:21:34.466Z,95.55
2023-05-08T23:24:01.531Z,95.44
2023-05-08T23:26:28.771Z,95.70
2023-05-08T23:28:55.761Z,95.55
2023-05-08T23:31:22.697Z,95.75
2023-05-08T23:33:49.503Z,95.94
2023-05-08T23:36:16.857Z,96.23
2023-05-08T23:38:43.650Z,96.39
2023-05-08T23:41:11.469Z,96.75
2023-05-08T23:43:38.305Z,96.35
2023-05-08T23:46:06.549Z,96.99
2023-05-08T23:48:33.528Z,96.93
2023-05-08T23:51:00.432Z,96.71
2023-05-08T23:53:27.451Z,96.61
2023-05-08T23:55:54.352Z,96.47
2023-05-08T23:58:21.359Z,96.39
